sensor_id;sensor_type;location;lat;lon;timestamp;P1;durP1;ratioP1;P2;durP2;ratioP2
67051;SDS011;53957;47.222;18.670;2022-10-24T04:46:41;27.57;;;14.00;;
67051;SDS011;53957;47.222;18.670;2022-10-24T04:49:49;39.22;;;15.60;;
67051;SDS011;53957;47.222;18.670;2022-10-24T04:52:51;39.60;;;13.93;;
67051;SDS011;53957;47.222;18.670;2022-10-24T04:55:54;32.53;;;13.95;;
67051;SDS011;53957;47.222;18.670;2022-10-24T04:58:57;56.50;;;15.63;;
67051;SDS011;53957;47.222;18.670;2022-10-24T05:02:00;35.97;;;14.82;;
67051;SDS011;53957;47.222;18.670;2022-10-24T05:05:03;28.45;;;14.70;;
67051;SDS011;53957;47.222;18.670;2022-10-24T05:08:06;31.77;;;14.95;;
67051;SDS011;53957;47.222;18.670;2022-10-24T05:11:09;39.38;;;16.27;;
67051;SDS011;53957;47.222;18.670;2022-10-24T05:14:13;33.40;;;15.70;;
67051;SDS011;53957;47.222;18.670;2022-10-24T05:17:15;41.88;;;14.63;;
67051;SDS011;53957;47.222;18.670;2022-10-24T05:20:18;34.60;;;15.10;;
67051;SDS011;53957;47.222;18.670;2022-10-24T05:23:21;33.35;;;15.70;;
67051;SDS011;53957;47.222;18.670;2022-10-24T05:26:24;35.95;;;15.48;;
67051;SDS011;53957;47.222;18.670;2022-10-24T05:29:26;38.03;;;16.83;;
67051;SDS011;53957;47.222;18.670;2022-10-24T05:32:29;30.88;;;14.80;;
67051;SDS011;53957;47.222;18.670;2022-10-24T05:35:34;34.83;;;14.75;;
67051;SDS011;53957;47.222;18.670;2022-10-24T05:38:40;35.45;;;15.55;;
67051;SDS011;53957;47.222;18.670;2022-10-24T05:41:50;30.20;;;14.30;;
67051;SDS011;53957;47.222;18.670;2022-10-24T05:44:57;31.62;;;15.18;;
67051;SDS011;53957;47.222;18.670;2022-10-24T05:47:59;34.08;;;14.20;;
67051;SDS011;53957;47.222;18.670;2022-10-24T05:51:02;38.38;;;14.75;;
67051;SDS011;53957;47.222;18.670;2022-10-24T05:54:05;43.55;;;15.93;;
67051;SDS011;53957;47.222;18.670;2022-10-24T05:57:09;32.60;;;15.95;;
67051;SDS011;53957;47.222;18.670;2022-10-24T06:00:12;35.13;;;15.77;;
67051;SDS011;53957;47.222;18.670;2022-10-24T06:03:17;32.00;;;15.00;;
67051;SDS011;53957;47.222;18.670;2022-10-24T06:09:46;27.65;;;14.02;;
67051;SDS011;53957;47.222;18.670;2022-10-24T06:12:48;35.50;;;15.20;;
67051;SDS011;53957;47.222;18.670;2022-10-24T06:15:51;42.13;;;15.50;;
67051;SDS011;53957;47.222;18.670;2022-10-24T06:18:54;36.92;;;13.90;;
67051;SDS011;53957;47.222;18.670;2022-10-24T06:21:58;31.45;;;15.85;;
67051;SDS011;53957;47.222;18.670;2022-10-24T06:25:01;28.75;;;15.20;;
67051;SDS011;53957;47.222;18.670;2022-10-24T06:28:06;40.88;;;16.35;;
67051;SDS011;53957;47.222;18.670;2022-10-24T06:31:14;27.13;;;15.25;;
67051;SDS011;53957;47.222;18.670;2022-10-24T06:34:17;29.90;;;14.30;;
67051;SDS011;53957;47.222;18.670;2022-10-24T06:37:25;24.02;;;13.38;;
67051;SDS011;53957;47.222;18.670;2022-10-24T06:40:28;30.62;;;13.25;;
67051;SDS011;53957;47.222;18.670;2022-10-24T06:43:31;32.30;;;16.45;;
67051;SDS011;53957;47.222;18.670;2022-10-24T07:05:12;28.35;;;15.70;;
67051;SDS011;53957;47.222;18.670;2022-10-24T07:08:16;35.10;;;14.63;;
67051;SDS011;53957;47.222;18.670;2022-10-24T07:11:19;24.52;;;14.75;;
67051;SDS011;53957;47.222;18.670;2022-10-24T07:14:22;28.98;;;14.68;;
67051;SDS011;53957;47.222;18.670;2022-10-24T07:17:27;25.17;;;13.60;;
67051;SDS011;53957;47.222;18.670;2022-10-24T07:20:30;31.42;;;14.35;;
67051;SDS011;53957;47.222;18.670;2022-10-24T07:23:33;35.85;;;16.45;;
67051;SDS011;53957;47.222;18.670;2022-10-24T07:26:37;32.03;;;14.52;;
67051;SDS011;53957;47.222;18.670;2022-10-24T07:29:40;25.92;;;14.93;;
67051;SDS011;53957;47.222;18.670;2022-10-24T07:32:43;28.30;;;13.80;;
67051;SDS011;53957;47.222;18.670;2022-10-24T07:35:46;37.00;;;15.85;;
67051;SDS011;53957;47.222;18.670;2022-10-24T07:38:57;27.87;;;16.10;;
67051;SDS011;53957;47.222;18.670;2022-10-24T07:42:01;32.72;;;16.33;;
67051;SDS011;53957;47.222;18.670;2022-10-24T07:45:06;40.22;;;15.65;;
67051;SDS011;53957;47.222;18.670;2022-10-24T07:48:10;41.70;;;18.73;;
67051;SDS011;53957;47.222;18.670;2022-10-24T07:51:13;53.15;;;20.75;;
67051;SDS011;53957;47.222;18.670;2022-10-24T07:54:18;70.57;;;25.10;;
67051;SDS011;53957;47.222;18.670;2022-10-24T07:57:27;64.70;;;24.55;;
67051;SDS011;53957;47.222;18.670;2022-10-24T08:00:30;60.33;;;23.60;;
67051;SDS011;53957;47.222;18.670;2022-10-24T08:03:33;59.42;;;24.58;;
67051;SDS011;53957;47.222;18.670;2022-10-24T08:06:36;50.42;;;22.90;;
67051;SDS011;53957;47.222;18.670;2022-10-24T08:09:40;49.58;;;22.17;;
67051;SDS011;53957;47.222;18.670;2022-10-24T08:12:43;55.33;;;22.65;;
67051;SDS011;53957;47.222;18.670;2022-10-24T08:15:47;76.20;;;25.30;;
67051;SDS011;53957;47.222;18.670;2022-10-24T08:18:50;65.43;;;26.98;;
67051;SDS011;53957;47.222;18.670;2022-10-24T08:21:54;68.35;;;27.70;;
67051;SDS011;53957;47.222;18.670;2022-10-24T08:24:58;70.65;;;27.75;;
67051;SDS011;53957;47.222;18.670;2022-10-24T08:28:03;78.07;;;28.77;;
67051;SDS011;53957;47.222;18.670;2022-10-24T08:31:11;63.35;;;25.70;;
67051;SDS011;53957;47.222;18.670;2022-10-24T08:34:19;75.97;;;26.20;;
67051;SDS011;53957;47.222;18.670;2022-10-24T08:37:38;62.13;;;27.35;;
67051;SDS011;53957;47.222;18.670;2022-10-24T08:40:55;69.37;;;27.67;;
67051;SDS011;53957;47.222;18.670;2022-10-24T08:43:59;76.45;;;28.50;;
67051;SDS011;53957;47.222;18.670;2022-10-24T08:50:50;80.95;;;28.58;;
67051;SDS011;53957;47.222;18.670;2022-10-24T08:54:19;78.45;;;30.30;;
67051;SDS011;53957;47.222;18.670;2022-10-24T08:57:27;74.15;;;29.42;;
67051;SDS011;53957;47.222;18.670;2022-10-24T09:00:36;71.97;;;28.90;;
67051;SDS011;53957;47.222;18.670;2022-10-24T15:58:09;34.72;;;16.00;;
67051;SDS011;53957;47.222;18.670;2022-10-24T16:01:22;27.10;;;15.05;;
67051;SDS011;53957;47.222;18.670;2022-10-24T16:04:30;29.30;;;15.82;;
67051;SDS011;53957;47.222;18.670;2022-10-24T16:07:35;26.05;;;14.60;;
67051;SDS011;53957;47.222;18.670;2022-10-24T16:10:39;26.87;;;15.25;;
67051;SDS011;53957;47.222;18.670;2022-10-24T16:13:43;27.52;;;15.73;;
67051;SDS011;53957;47.222;18.670;2022-10-24T16:16:46;25.80;;;13.68;;
67051;SDS011;53957;47.222;18.670;2022-10-24T16:19:50;25.37;;;14.40;;
67051;SDS011;53957;47.222;18.670;2022-10-24T16:22:53;25.17;;;15.45;;
67051;SDS011;53957;47.222;18.670;2022-10-24T16:25:56;29.85;;;16.65;;
67051;SDS011;53957;47.222;18.670;2022-10-24T16:28:59;29.80;;;16.83;;
67051;SDS011;53957;47.222;18.670;2022-10-24T16:32:03;38.47;;;18.27;;
67051;SDS011;53957;47.222;18.670;2022-10-24T16:35:07;33.03;;;17.58;;
67051;SDS011;53957;47.222;18.670;2022-10-24T16:38:10;41.20;;;19.85;;
67051;SDS011;53957;47.222;18.670;2022-10-24T16:41:15;38.08;;;21.70;;
67051;SDS011;53957;47.222;18.670;2022-10-24T16:44:22;52.40;;;23.35;;
67051;SDS011;53957;47.222;18.670;2022-10-24T16:47:27;54.38;;;24.42;;
67051;SDS011;53957;47.222;18.670;2022-10-24T16:50:31;53.67;;;25.27;;
67051;SDS011;53957;47.222;18.670;2022-10-24T16:53:34;54.85;;;26.20;;
67051;SDS011;53957;47.222;18.670;2022-10-24T16:56:37;56.78;;;27.83;;
67051;SDS011;53957;47.222;18.670;2022-10-24T16:59:42;56.30;;;26.35;;
67051;SDS011;53957;47.222;18.670;2022-10-24T17:02:45;55.78;;;26.90;;
67051;SDS011;53957;47.222;18.670;2022-10-24T17:05:52;55.85;;;26.75;;
67051;SDS011;53957;47.222;18.670;2022-10-24T17:08:55;54.15;;;26.40;;
67051;SDS011;53957;47.222;18.670;2022-10-24T17:11:59;57.53;;;27.15;;
67051;SDS011;53957;47.222;18.670;2022-10-24T17:15:02;56.92;;;26.87;;
67051;SDS011;53957;47.222;18.670;2022-10-24T17:18:07;64.62;;;26.73;;
67051;SDS011;53957;47.222;18.670;2022-10-24T17:21:10;62.47;;;27.98;;
67051;SDS011;53957;47.222;18.670;2022-10-24T17:24:16;58.53;;;28.40;;
67051;SDS011;53957;47.222;18.670;2022-10-24T17:27:22;61.22;;;29.00;;
67051;SDS011;53957;47.222;18.670;2022-10-24T17:30:26;53.53;;;27.33;;
67051;SDS011;53957;47.222;18.670;2022-10-24T17:33:31;55.05;;;26.55;;
67051;SDS011;53957;47.222;18.670;2022-10-24T17:36:39;64.43;;;27.92;;
67051;SDS011;53957;47.222;18.670;2022-10-24T17:43:24;51.67;;;26.27;;
67051;SDS011;53957;47.222;18.670;2022-10-24T17:46:29;65.85;;;29.40;;
67051;SDS011;53957;47.222;18.670;2022-10-24T17:49:33;55.38;;;26.98;;
67051;SDS011;53957;47.222;18.670;2022-10-24T17:52:37;63.22;;;28.65;;
67051;SDS011;53957;47.222;18.670;2022-10-24T17:55:45;72.43;;;30.73;;
